Time;durP1;ratioP1;P1;durP2;ratioP2;P2;SDS_P1;SDS_P2;PMS_P1;PMS_P2;Temp;Humidity;BMP_temperature;BMP_pressure;BME280_temperature;BME280_humidity;BME280_pressure;Samples;Min_cycle;Max_cycle;Signal;HPM_P1;HPM_P2
2021/04/03 00:01:00;;;;;;;9.17;8.77;;;22.90;92.00;;;;;;4117204;34;20420;-42
2021/04/03 00:03:30;;;;;;;10.00;9.50;;;22.90;92.00;;;;;;4117611;34;20667;-41
2021/04/03 00:05:56;;;;;;;9.87;9.40;;;22.90;92.00;;;;;;4115577;34;20415;-41
2021/04/03 00:08:24;;;;;;;10.37;9.83;;;22.90;92.00;;;;;;4115578;34;20438;-41
2021/04/03 00:10:53;;;;;;;9.73;9.23;;;22.90;92.10;;;;;;4116800;34;20674;-41
2021/04/03 00:13:22;;;;;;;10.43;9.93;;;22.90;92.10;;;;;;4117037;34;20426;-43
2021/04/03 00:15:48;;;;;;;9.70;9.20;;;22.90;92.10;;;;;;4116100;34;20429;-43
2021/04/03 00:18:16;;;;;;;10.30;9.80;;;22.90;92.10;;;;;;4117683;34;20426;-42
2021/04/03 00:20:46;;;;;;;10.43;9.83;;;22.90;92.10;;;;;;4117809;34;20557;-41
2021/04/03 00:23:13;;;;;;;9.20;8.80;;;22.90;92.10;;;;;;4116592;34;20415;-41
2021/04/03 00:25:39;;;;;;;9.57;9.17;;;22.90;92.00;;;;;;4116980;34;20411;-41
2021/04/03 00:28:06;;;;;;;9.47;9.07;;;22.90;92.10;;;;;;4116494;34;21105;-41
2021/04/03 00:30:32;;;;;;;10.13;9.73;;;22.90;92.10;;;;;;4115949;34;20413;-41
2021/04/03 00:33:01;;;;;;;10.30;9.70;;;22.90;92.10;;;;;;4117457;34;20561;-40
2021/04/03 00:35:30;;;;;;;10.03;9.53;;;22.90;92.10;;;;;;4117365;34;20652;-40
2021/04/03 00:37:59;;;;;;;9.93;9.43;;;22.80;92.00;;;;;;4117100;34;20504;-40
2021/04/03 00:40:27;;;;;;;9.73;9.23;;;22.90;92.10;;;;;;4116525;34;20536;-40
2021/04/03 00:42:55;;;;;;;9.20;8.80;;;22.90;92.10;;;;;;4116015;34;20526;-41
2021/04/03 00:45:22;;;;;;;9.33;8.90;;;22.90;92.10;;;;;;4117005;34;20425;-41
2021/04/03 00:47:49;;;;;;;9.10;8.70;;;22.90;92.10;;;;;;4115149;34;20430;-40
2021/04/03 00:50:27;;;;;;;9.87;9.47;;;22.90;92.10;;;;;;4102713;34;20670;-40
2021/04/03 00:52:55;;;;;;;10.27;9.73;;;22.80;92.00;;;;;;4103244;34;20787;-41
2021/04/03 00:55:23;;;;;;;9.93;9.50;;;22.80;92.00;;;;;;4103166;34;20422;-41
2021/04/03 00:57:50;;;;;;;9.90;9.50;;;22.80;92.00;;;;;;4103293;34;20753;-41
2021/04/03 01:00:19;;;;;;;10.27;9.77;;;22.80;92.00;;;;;;4103544;34;20407;-43
2021/04/03 01:02:47;;;;;;;9.90;9.40;;;22.80;92.00;;;;;;4116935;34;20450;-41
2021/04/03 01:05:19;;;;;;;10.00;9.50;;;22.80;92.00;;;;;;4105349;34;20766;-40
2021/04/03 01:07:45;;;;;;;10.03;9.53;;;22.80;92.00;;;;;;4116760;34;20517;-40
2021/04/03 01:10:16;;;;;;;9.30;8.90;;;22.80;92.00;;;;;;4116081;34;20425;-40
2021/04/03 01:12:56;;;;;;;9.60;9.20;;;22.80;92.00;;;;;;4103744;34;20431;-42
2021/04/03 01:15:32;;;;;;;9.63;9.23;;;22.80;92.10;;;;;;4116211;34;20389;-40
2021/04/03 01:18:07;;;;;;;9.80;9.40;;;22.80;92.00;;;;;;4116654;34;20972;-40
2021/04/03 01:20:43;;;;;;;9.80;9.40;;;22.80;92.00;;;;;;4116521;34;20407;-41
2021/04/03 01:23:35;;;;;;;9.80;9.40;;;22.80;92.00;;;;;;4104831;34;20630;-41
2021/04/03 01:26:21;;;;;;;9.60;9.20;;;22.80;92.10;;;;;;4102822;34;20610;-43
2021/04/03 01:29:18;;;;;;;9.80;9.30;;;22.80;92.00;;;;;;4105942;34;20387;-40
2021/04/03 01:31:46;;;;;;;9.70;9.20;;;22.80;92.10;;;;;;4114984;34;20417;-41
2021/04/03 01:34:17;;;;;;;9.50;9.10;;;22.80;92.00;;;;;;4115316;34;20437;-40
2021/04/03 01:36:46;;;;;;;10.07;9.57;;;22.80;92.10;;;;;;4116815;34;20417;-42
2021/04/03 01:39:17;;;;;;;10.57;9.97;;;22.80;92.10;;;;;;4115911;34;21005;-40
2021/04/03 01:41:47;;;;;;;9.50;9.10;;;22.80;92.10;;;;;;4116407;34;20674;-42
2021/04/03 01:44:18;;;;;;;9.50;9.10;;;22.80;92.10;;;;;;4104186;34;20438;-40
2021/04/03 01:46:48;;;;;;;9.67;9.17;;;22.80;92.10;;;;;;4115349;34;20402;-41
2021/04/03 01:49:17;;;;;;;9.03;8.73;;;22.80;92.10;;;;;;4102351;34;20738;-41
2021/04/03 01:51:48;;;;;;;9.40;9.00;;;22.80;92.10;;;;;;4103309;34;20479;-40
2021/04/03 01:54:18;;;;;;;9.53;9.13;;;22.80;92.10;;;;;;4103734;34;20531;-40
2021/04/03 01:56:49;;;;;;;9.40;9.00;;;22.80;92.10;;;;;;4103181;34;20493;-40
2021/04/03 01:59:21;;;;;;;9.73;9.30;;;22.80;92.10;;;;;;4103305;34;20409;-40
2021/04/03 02:01:55;;;;;;;9.97;9.57;;;22.80;92.10;;;;;;4104123;34;20446;-41
2021/04/03 02:04:23;;;;;;;9.30;8.90;;;22.80;92.10;;;;;;4104200;34;20758;-40
2021/04/03 02:06:52;;;;;;;9.37;8.87;;;22.80;92.40;;;;;;4104015;34;20394;-42
2021/04/03 02:09:38;;;;;;;9.33;9.00;;;22.80;92.10;;;;;;4115810;34;20407;-40
2021/04/03 02:12:14;;;;;;;9.40;9.00;;;22.80;92.10;;;;;;4103592;34;20395;-40
2021/04/03 02:14:53;;;;;;;9.80;9.20;;;22.80;92.10;;;;;;4104015;34;20401;-41
2021/04/03 02:17:22;;;;;;;9.23;8.83;;;22.80;92.10;;;;;;4104444;34;20418;-41
2021/04/03 02:19:52;;;;;;;9.20;8.80;;;22.70;92.10;;;;;;4116747;34;20774;-42
2021/04/03 02:22:19;;;;;;;9.60;9.20;;;22.70;92.10;;;;;;4103505;34;20407;-41
2021/04/03 02:24:53;;;;;;;9.47;8.97;;;22.70;92.00;;;;;;4103153;34;20742;-41
2021/04/03 02:27:21;;;;;;;9.40;9.00;;;22.70;92.00;;;;;;4116593;34;20410;-40
2021/04/03 02:29:48;;;;;;;9.20;8.90;;;22.70;92.10;;;;;;4103320;34;20417;-41
2021/04/03 02:32:17;;;;;;;10.10;9.60;;;22.70;92.00;;;;;;4116006;34;20405;-40
2021/04/03 02:34:44;;;;;;;10.27;9.70;;;22.70;92.10;;;;;;4104088;34;20385;-40
2021/04/03 02:37:12;;;;;;;8.93;8.53;;;22.70;92.10;;;;;;4103221;34;20453;-40
2021/04/03 02:39:38;;;;;;;9.60;9.20;;;22.70;92.10;;;;;;4117463;34;20605;-41
2021/04/03 02:42:10;;;;;;;9.70;9.27;;;22.70;92.10;;;;;;4104689;34;20406;-40
2021/04/03 02:44:42;;;;;;;10.27;9.80;;;22.70;92.10;;;;;;4105024;34;20432;-42
2021/04/03 02:47:14;;;;;;;9.57;9.17;;;22.70;92.10;;;;;;4104651;34;20763;-41
2021/04/03 02:49:47;;;;;;;9.53;9.13;;;22.70;92.10;;;;;;4116285;34;20422;-41
2021/04/03 02:52:15;;;;;;;9.70;9.20;;;22.70;92.10;;;;;;4105915;34;20403;-40
2021/04/03 02:54:43;;;;;;;9.30;8.87;;;22.70;92.10;;;;;;4117668;34;20428;-40
2021/04/03 02:57:14;;;;;;;9.90;9.43;;;22.70;92.10;;;;;;4117436;34;20410;-40
2021/04/03 02:59:57;;;;;;;9.53;9.07;;;22.70;92.10;;;;;;4117861;34;20425;-42
2021/04/03 03:02:26;;;;;;;9.13;8.73;;;22.70;92.10;;;;;;4116952;34;20627;-41
2021/04/03 03:04:55;;;;;;;10.23;9.67;;;22.70;92.10;;;;;;4104788;34;20411;-41
2021/04/03 03:07:24;;;;;;;9.73;9.20;;;22.70;92.10;;;;;;4105079;34;20761;-40
2021/04/03 03:09:54;;;;;;;9.10;8.80;;;22.70;92.10;;;;;;4104102;34;20403;-40
2021/04/03 03:12:25;;;;;;;9.60;9.20;;;22.70;92.10;;;;;;4117587;34;20425;-41
2021/04/03 03:14:55;;;;;;;10.10;9.60;;;22.70;92.10;;;;;;4104213;34;20388;-40
2021/04/03 03:17:24;;;;;;;9.23;8.83;;;22.70;92.10;;;;;;4116681;34;20501;-40
2021/04/03 03:20:00;;;;;;;9.77;9.27;;;22.70;92.10;;;;;;4104070;34;20415;-41
2021/04/03 03:22:28;;;;;;;9.30;8.90;;;22.70;92.10;;;;;;4116457;34;20413;-41
2021/04/03 03:24:55;;;;;;;9.40;9.00;;;22.70;92.10;;;;;;4116966;34;20508;-43
2021/04/03 03:27:24;;;;;;;9.90;9.50;;;22.70;92.10;;;;;;4104131;34;20419;-41
2021/04/03 03:29:53;;;;;;;9.23;8.87;;;22.70;92.10;;;;;;4103876;34;20407;-42
2021/04/03 03:32:21;;;;;;;9.53;9.13;;;22.70;92.10;;;;;;4117186;34;20624;-40
2021/04/03 03:34:59;;;;;;;9.43;9.03;;;22.70;92.10;;;;;;4103936;34;20500;-40
2021/04/03 03:37:27;;;;;;;9.23;8.93;;;22.70;92.10;;;;;;4116735;34;20433;-41
2021/04/03 03:39:54;;;;;;;10.20;9.70;;;22.70;92.10;;;;;;4104538;34;20432;-41
2021/04/03 03:42:23;;;;;;;9.50;9.10;;;22.70;92.10;;;;;;4117257;34;20800;-40
2021/04/03 03:44:51;;;;;;;9.40;9.00;;;22.70;92.10;;;;;;4116332;34;20409;-42
2021/04/03 03:47:19;;;;;;;9.53;9.10;;;22.70;92.10;;;;;;4103478;34;20731;-41
2021/04/03 03:49:51;;;;;;;9.63;9.23;;;22.70;92.20;;;;;;4092922;34;20444;-42
2021/04/03 03:52:19;;;;;;;10.03;9.53;;;22.60;92.10;;;;;;4114644;34;20421;-41
2021/04/03 03:54:47;;;;;;;9.93;9.53;;;22.60;92.10;;;;;;4103041;34;20432;-41
2021/04/03 03:57:14;;;;;;;9.83;9.40;;;22.60;92.10;;;;;;4115322;34;20397;-42
2021/04/03 03:59:45;;;;;;;9.40;9.00;;;22.60;92.10;;;;;;4115320;34;20388;-41
2021/04/03 04:02:13;;;;;;;8.97;8.60;;;22.60;92.10;;;;;;4114591;34;20926;-40
2021/04/03 04:04:39;;;;;;;9.23;8.83;;;22.60;92.10;;;;;;4114407;34;20422;-40
2021/04/03 04:07:09;;;;;;;9.47;9.07;;;22.60;92.10;;;;;;4103189;34;20406;-41
2021/04/03 04:09:40;;;;;;;9.63;9.23;;;22.60;92.10;;;;;;4115650;34;20433;-40
2021/04/03 04:12:08;;;;;;;9.50;9.10;;;22.60;92.10;;;;;;4116161;34;20422;-42
2021/04/03 04:14:43;;;;;;;9.70;9.30;;;22.60;92.10;;;;;;4116624;34;20495;-41
2021/04/03 04:17:12;;;;;;;10.33;9.83;;;22.60;92.10;;;;;;4104739;34;20603;-40
2021/04/03 04:19:42;;;;;;;9.50;9.10;;;22.60;92.10;;;;;;4116718;34;20395;-40
2021/04/03 04:22:09;;;;;;;9.90;9.40;;;22.60;92.10;;;;;;4103631;34;20527;-40
2021/04/03 04:24:36;;;;;;;10.57;10.13;;;22.60;92.10;;;;;;4104294;34;20425;-40
2021/04/03 04:27:09;;;;;;;10.37;9.87;;;22.60;92.20;;;;;;4104537;34;20410;-40
2021/04/03 04:29:37;;;;;;;9.83;9.33;;;22.60;92.10;;;;;;4114921;34;20803;-40
2021/04/03 04:32:04;;;;;;;9.70;9.30;;;22.60;92.10;;;;;;4115221;34;20438;-42
2021/04/03 04:34:35;;;;;;;8.97;8.67;;;22.60;92.10;;;;;;4103517;34;20402;-40
2021/04/03 04:37:04;;;;;;;9.87;9.47;;;22.60;92.20;;;;;;4103237;34;20402;-41
2021/04/03 04:39:38;;;;;;;9.87;9.17;;;22.60;92.20;;;;;;4115769;34;20441;-41
2021/04/03 04:42:10;;;;;;;9.70;9.30;;;22.60;92.20;;;;;;4102915;34;20498;-41
2021/04/03 04:44:43;;;;;;;9.40;9.00;;;22.60;92.20;;;;;;4093685;34;20395;-40
2021/04/03 04:47:10;;;;;;;9.97;9.57;;;22.60;92.20;;;;;;4116007;34;20432;-40
2021/04/03 04:49:37;;;;;;;10.10;9.70;;;22.60;92.20;;;;;;4102798;34;20517;-40
2021/04/03 04:52:05;;;;;;;9.43;9.10;;;22.60;92.20;;;;;;4114799;34;20437;-40
2021/04/03 04:54:35;;;;;;;9.33;9.00;;;22.60;92.20;;;;;;4115162;34;20407;-40
2021/04/03 04:57:06;;;;;;;10.10;9.70;;;22.60;92.20;;;;;;4115812;34;20412;-42
2021/04/03 04:59:42;;;;;;;9.90;9.50;;;22.60;92.20;;;;;;4116123;34;20669;-40
2021/04/03 05:02:14;;;;;;;9.50;9.07;;;22.60;92.20;;;;;;4114794;34;20467;-43
2021/04/03 05:04:41;;;;;;;9.70;9.30;;;22.50;92.20;;;;;;4114762;34;20833;-41
2021/04/03 05:07:08;;;;;;;9.63;9.23;;;22.60;92.20;;;;;;4113530;34;20771;-40
2021/04/03 05:09:34;;;;;;;9.30;9.00;;;22.60;92.20;;;;;;4115426;34;20402;-40
2021/04/03 05:12:02;;;;;;;9.87;9.47;;;22.60;92.20;;;;;;4103311;34;20749;-42
2021/04/03 05:14:29;;;;;;;9.20;8.90;;;22.60;92.20;;;;;;4103715;34;20722;-41
2021/04/03 05:16:56;;;;;;;10.50;10.00;;;22.50;92.20;;;;;;4116211;34;20518;-40
2021/04/03 05:19:23;;;;;;;9.10;8.80;;;22.60;92.20;;;;;;4114468;34;20421;-40
2021/04/03 05:21:50;;;;;;;10.13;9.67;;;22.60;92.20;;;;;;4101429;34;20485;-40
2021/04/03 05:24:16;;;;;;;9.27;8.77;;;22.60;92.20;;;;;;4114758;34;20500;-41
2021/04/03 05:26:43;;;;;;;9.60;9.20;;;22.50;92.20;;;;;;4115174;34;20992;-40
2021/04/03 05:29:10;;;;;;;9.53;9.13;;;22.50;92.20;;;;;;4114043;34;20592;-43
2021/04/03 05:31:36;;;;;;;10.33;9.93;;;22.50;92.20;;;;;;4115023;34;20430;-40
2021/04/03 05:34:04;;;;;;;9.87;9.47;;;22.50;92.20;;;;;;4113751;34;20394;-40
2021/04/03 05:36:30;;;;;;;9.50;9.10;;;22.50;92.20;;;;;;4111901;34;20422;-41
2021/04/03 05:38:57;;;;;;;9.30;8.90;;;22.50;92.20;;;;;;4113229;34;20430;-40
2021/04/03 05:41:23;;;;;;;9.93;9.53;;;22.50;92.20;;;;;;4112963;34;20501;-40
2021/04/03 05:43:52;;;;;;;9.43;9.03;;;22.50;92.20;;;;;;4112881;34;20410;-41
2021/04/03 05:46:19;;;;;;;9.77;9.37;;;22.50;92.20;;;;;;4113020;34;20413;-41
2021/04/03 05:48:46;;;;;;;10.30;9.77;;;22.50;92.20;;;;;;4098759;34;20410;-42
2021/04/03 05:51:15;;;;;;;9.43;9.07;;;22.50;92.20;;;;;;4111588;34;20489;-40
2021/04/03 05:53:42;;;;;;;9.83;9.43;;;22.50;92.30;;;;;;4114282;34;20762;-41
2021/04/03 05:56:09;;;;;;;9.00;8.70;;;22.50;92.20;;;;;;4113981;34;20434;-40
2021/04/03 05:58:37;;;;;;;9.67;9.27;;;22.50;92.30;;;;;;4113409;34;20734;-40
2021/04/03 06:01:05;;;;;;;9.30;9.00;;;22.50;92.20;;;;;;4113150;34;20435;-41
2021/04/03 06:03:33;;;;;;;8.90;8.60;;;22.50;92.30;;;;;;4110917;34;20429;-41
2021/04/03 06:06:00;;;;;;;9.97;9.57;;;22.50;92.30;;;;;;4111756;34;20411;-42
2021/04/03 06:08:30;;;;;;;9.80;9.40;;;22.50;92.30;;;;;;4113380;34;20389;-41
2021/04/03 06:11:24;;;;;;;9.93;9.47;;;22.50;92.30;;;;;;4113935;34;20397;-41
2021/04/03 06:14:05;;;;;;;9.57;9.17;;;22.50;92.30;;;;;;4081337;34;20624;-36
2021/04/03 06:16:33;;;;;;;9.83;9.43;;;22.50;92.30;;;;;;4113776;34;20430;-36
2021/04/03 06:19:16;;;;;;;9.47;9.07;;;22.50;92.30;;;;;;4100181;34;20867;-36
2021/04/03 06:21:45;;;;;;;9.30;8.90;;;22.50;92.30;;;;;;4112661;34;20498;-35
2021/04/03 06:24:21;;;;;;;9.70;9.30;;;22.50;92.30;;;;;;4114652;34;20645;-35
2021/04/03 06:27:05;;;;;;;9.73;9.33;;;22.50;92.30;;;;;;4115072;34;20500;-35
2021/04/03 06:29:38;;;;;;;9.70;9.33;;;22.50;92.30;;;;;;4114135;34;20420;-35
2021/04/03 06:32:08;;;;;;;9.20;8.90;;;22.50;92.30;;;;;;4112061;34;20620;-34
2021/04/03 06:34:37;;;;;;;9.40;9.10;;;22.50;92.30;;;;;;4111902;34;20421;-35
2021/04/03 06:37:06;;;;;;;10.13;9.70;;;22.50;92.30;;;;;;4110811;34;20424;-34
2021/04/03 06:39:51;;;;;;;10.00;9.60;;;22.50;92.30;;;;;;4109181;34;20953;-34
2021/04/03 06:42:40;;;;;;;9.80;9.40;;;22.50;92.40;;;;;;4111887;34;20406;-35
2021/04/03 06:45:24;;;;;;;9.73;9.33;;;22.50;92.40;;;;;;4113846;34;20402;-35
2021/04/03 06:47:53;;;;;;;9.63;9.23;;;22.50;92.40;;;;;;4113871;34;20406;-35
2021/04/03 06:50:21;;;;;;;10.17;9.67;;;22.50;92.30;;;;;;4112563;34;20544;-35
2021/04/03 06:52:48;;;;;;;10.10;9.70;;;22.50;92.40;;;;;;4113181;34;20425;-35
2021/04/03 06:55:17;;;;;;;9.03;8.73;;;22.40;92.40;;;;;;4113153;34;20717;-35
2021/04/03 06:57:45;;;;;;;9.13;8.83;;;22.40;92.40;;;;;;4111572;34;20476;-35
2021/04/03 07:00:14;;;;;;;9.30;8.90;;;22.40;92.40;;;;;;4110527;34;20422;-35
2021/04/03 07:02:48;;;;;;;9.20;8.80;;;22.40;92.40;;;;;;4110662;34;20429;-35
2021/04/03 07:05:15;;;;;;;9.63;9.23;;;22.40;92.40;;;;;;4111350;34;20429;-35
2021/04/03 07:07:44;;;;;;;9.47;9.10;;;22.40;92.40;;;;;;4110972;34;20393;-35
2021/04/03 07:10:13;;;;;;;9.50;9.20;;;22.40;92.50;;;;;;4098109;34;20605;-34
2021/04/03 07:12:42;;;;;;;9.77;9.37;;;22.40;92.50;;;;;;4112051;34;20396;-35
2021/04/03 07:15:09;;;;;;;9.87;9.47;;;22.40;92.80;;;;;;4111866;34;20406;-35
2021/04/03 07:17:39;;;;;;;9.27;8.97;;;22.40;92.50;;;;;;4111902;34;20402;-36
2021/04/03 07:20:09;;;;;;;9.10;8.80;;;22.40;92.50;;;;;;4113728;34;20430;-35
2021/04/03 07:22:37;;;;;;;9.70;9.30;;;22.40;92.50;;;;;;4112394;34;20511;-35
2021/04/03 07:25:07;;;;;;;8.93;8.63;;;22.40;92.50;;;;;;4111096;34;20421;-35
2021/04/03 07:27:35;;;;;;;9.50;9.10;;;22.40;92.50;;;;;;4110988;34;20448;-35
2021/04/03 07:30:04;;;;;;;9.37;9.07;;;22.40;92.50;;;;;;4110766;34;20713;-35
2021/04/03 07:32:37;;;;;;;8.90;8.60;;;22.40;92.50;;;;;;4111614;34;20708;-35
2021/04/03 07:35:21;;;;;;;9.70;9.30;;;22.40;92.50;;;;;;4098853;34;20439;-36
2021/04/03 07:37:50;;;;;;;9.30;9.00;;;22.40;92.60;;;;;;4108934;34;20483;-35
2021/04/03 07:40:42;;;;;;;9.63;9.23;;;22.40;92.60;;;;;;4111602;34;20421;-35
2021/04/03 07:43:35;;;;;;;9.17;8.87;;;22.40;92.60;;;;;;4110637;34;20540;-35
2021/04/03 07:46:05;;;;;;;9.40;9.00;;;22.40;92.60;;;;;;4110665;34;20432;-36
2021/04/03 07:48:43;;;;;;;9.60;9.20;;;22.40;92.60;;;;;;4111668;34;20759;-35
2021/04/03 07:51:11;;;;;;;9.30;9.00;;;22.40;92.60;;;;;;4110764;34;20393;-35
2021/04/03 07:53:40;;;;;;;9.03;8.73;;;22.40;92.60;;;;;;4112318;34;20459;-35
2021/04/03 07:56:08;;;;;;;9.33;8.93;;;22.40;92.60;;;;;;4111558;34;20545;-35
2021/04/03 07:58:35;;;;;;;9.57;9.17;;;22.40;92.60;;;;;;4112973;34;20850;-35
2021/04/03 08:01:04;;;;;;;9.67;9.27;;;22.40;92.60;;;;;;4112885;34;20547;-35
2021/04/03 08:03:32;;;;;;;9.50;9.10;;;22.40;92.60;;;;;;4110434;34;20437;-35
2021/04/03 08:06:02;;;;;;;9.03;8.73;;;22.40;92.60;;;;;;4111666;34;20413;-35
2021/04/03 08:08:30;;;;;;;9.73;9.33;;;22.40;92.60;;;;;;4110570;34;20661;-35
2021/04/03 08:11:11;;;;;;;9.40;9.10;;;22.40;92.60;;;;;;4109992;34;20440;-35
2021/04/03 08:13:41;;;;;;;9.30;9.00;;;22.30;92.60;;;;;;4109749;34;20497;-35
2021/04/03 08:16:11;;;;;;;10.10;9.70;;;22.30;92.60;;;;;;4111213;34;20435;-35
2021/04/03 08:18:39;;;;;;;9.47;9.10;;;22.40;92.60;;;;;;4112875;34;20463;-35
2021/04/03 08:21:07;;;;;;;9.23;8.93;;;22.40;92.60;;;;;;4110916;34;20427;-36
2021/04/03 08:23:38;;;;;;;9.83;9.43;;;22.30;92.60;;;;;;4111559;34;20401;-35
2021/04/03 08:26:05;;;;;;;9.33;9.00;;;22.30;92.60;;;;;;4113664;34;20405;-36
2021/04/03 08:28:32;;;;;;;8.90;8.60;;;22.30;92.60;;;;;;4112367;34;20414;-35
2021/04/03 08:30:59;;;;;;;8.90;8.60;;;22.30;92.60;;;;;;4109503;34;20696;-36
2021/04/03 08:33:31;;;;;;;9.00;8.63;;;22.30;92.60;;;;;;4111035;34;20407;-35
2021/04/03 08:35:58;;;;;;;8.97;8.67;;;22.30;92.60;;;;;;4111315;34;20407;-35
2021/04/03 08:38:26;;;;;;;9.50;9.10;;;22.30;92.60;;;;;;4111253;34;20433;-35
2021/04/03 08:40:54;;;;;;;8.93;8.63;;;22.30;92.60;;;;;;4112317;34;20506;-35
2021/04/03 08:43:27;;;;;;;9.03;8.73;;;22.30;92.60;;;;;;4110176;34;20433;-35
2021/04/03 08:46:03;;;;;;;9.40;9.00;;;22.30;92.60;;;;;;4109125;34;20575;-35
2021/04/03 08:48:38;;;;;;;9.40;9.00;;;22.30;92.60;;;;;;4109759;34;20413;-36
2021/04/03 08:51:07;;;;;;;9.33;8.93;;;22.30;92.60;;;;;;4111850;34;20407;-35
2021/04/03 08:53:41;;;;;;;9.33;9.03;;;22.30;92.60;;;;;;4111870;34;20534;-35
2021/04/03 08:56:09;;;;;;;8.87;8.57;;;22.30;92.60;;;;;;4112177;34;20613;-35
2021/04/03 08:58:36;;;;;;;9.60;9.20;;;22.30;92.60;;;;;;4111181;34;20429;-35
2021/04/03 09:01:04;;;;;;;8.80;8.40;;;22.30;92.70;;;;;;4110944;34;20447;-35
2021/04/03 09:03:33;;;;;;;9.73;9.33;;;22.30;92.70;;;;;;4112189;34;20457;-35
2021/04/03 09:06:00;;;;;;;9.20;8.80;;;22.30;92.60;;;;;;4111228;34;20456;-35
2021/04/03 09:08:27;;;;;;;9.97;9.57;;;22.30;92.70;;;;;;4110400;34;20398;-35
2021/04/03 09:10:55;;;;;;;9.30;9.00;;;22.30;92.70;;;;;;4109705;34;20397;-35
2021/04/03 09:13:22;;;;;;;9.43;9.03;;;22.30;92.70;;;;;;4109736;34;20796;-35
2021/04/03 09:15:49;;;;;;;9.70;9.30;;;22.30;92.70;;;;;;4111158;34;20436;-35
2021/04/03 09:18:17;;;;;;;10.43;10.03;;;22.30;92.70;;;;;;4110117;34;20653;-34
2021/04/03 09:20:49;;;;;;;9.73;9.33;;;22.30;92.70;;;;;;4110638;34;20425;-35
2021/04/03 09:23:22;;;;;;;10.07;9.67;;;22.30;92.70;;;;;;4111502;34;20414;-36
2021/04/03 09:25:59;;;;;;;9.07;8.77;;;22.30;92.70;;;;;;4110732;34;20783;-35
2021/04/03 09:28:36;;;;;;;9.60;9.20;;;22.30;92.70;;;;;;4112627;34;20408;-35
2021/04/03 09:31:03;;;;;;;9.83;9.43;;;22.30;92.70;;;;;;4097488;34;20818;-35
2021/04/03 09:33:30;;;;;;;9.43;9.07;;;22.30;92.70;;;;;;4111104;34;20503;-35
2021/04/03 09:36:09;;;;;;;8.80;8.40;;;22.30;92.70;;;;;;4111528;34;20516;-35
2021/04/03 09:38:37;;;;;;;8.90;8.57;;;22.30;92.70;;;;;;4110390;34;20521;-36
2021/04/03 09:41:20;;;;;;;8.97;8.67;;;22.30;92.70;;;;;;4098705;34;20422;-35
2021/04/03 09:43:47;;;;;;;9.60;9.20;;;22.30;92.70;;;;;;4111740;34;20449;-36
2021/04/03 09:46:13;;;;;;;9.80;9.43;;;22.30;92.70;;;;;;4112081;34;20422;-35
2021/04/03 09:48:41;;;;;;;9.47;9.07;;;22.30;92.70;;;;;;4110663;34;20451;-35
2021/04/03 09:51:09;;;;;;;10.10;9.70;;;22.30;92.70;;;;;;4111513;34;20630;-35
2021/04/03 09:53:37;;;;;;;9.70;9.30;;;22.30;92.70;;;;;;4113120;34;20658;-35
2021/04/03 09:56:04;;;;;;;9.53;9.23;;;22.30;92.80;;;;;;4112394;34;20689;-36
2021/04/03 09:58:31;;;;;;;10.10;9.70;;;22.30;92.70;;;;;;4112691;34;20787;-36
2021/04/03 10:00:58;;;;;;;9.90;9.50;;;22.30;92.80;;;;;;4111503;34;20426;-35
2021/04/03 10:03:24;;;;;;;9.80;9.50;;;22.30;92.80;;;;;;4110768;34;20772;-36
2021/04/03 10:05:51;;;;;;;10.30;9.90;;;22.30;92.80;;;;;;4110225;34;20422;-35
2021/04/03 10:08:17;;;;;;;9.33;8.93;;;22.30;92.80;;;;;;4112234;34;20767;-36
2021/04/03 10:10:45;;;;;;;10.27;9.87;;;22.30;92.80;;;;;;4112011;34;20448;-36
2021/04/03 10:13:12;;;;;;;9.83;9.53;;;22.30;92.80;;;;;;4098749;34;20429;-35
2021/04/03 10:15:38;;;;;;;9.13;8.83;;;22.30;92.80;;;;;;4111175;34;20406;-35
2021/04/03 10:18:05;;;;;;;9.70;9.40;;;22.30;92.80;;;;;;4112544;34;20520;-36
2021/04/03 10:20:32;;;;;;;9.97;9.57;;;22.20;92.70;;;;;;4111418;34;20734;-35
2021/04/03 10:22:58;;;;;;;10.03;9.63;;;22.20;92.70;;;;;;4113024;34;20408;-35
2021/04/03 10:25:25;;;;;;;9.70;9.40;;;22.20;92.70;;;;;;4112845;34;20413;-36
2021/04/03 10:27:54;;;;;;;9.27;8.97;;;22.20;92.70;;;;;;4111511;34;20453;-34
2021/04/03 10:30:21;;;;;;;9.33;9.03;;;22.20;92.70;;;;;;4096712;34;20762;-35
2021/04/03 10:32:48;;;;;;;9.20;8.90;;;22.20;92.70;;;;;;4111472;34;20480;-35
2021/04/03 10:35:14;;;;;;;9.03;8.63;;;22.20;92.70;;;;;;4113552;34;21045;-36
2021/04/03 10:37:41;;;;;;;9.93;9.43;;;22.20;92.70;;;;;;4112785;34;20609;-35
2021/04/03 10:40:08;;;;;;;9.27;8.97;;;22.20;92.70;;;;;;4111967;34;20428;-35
2021/04/03 10:42:35;;;;;;;9.90;9.53;;;22.20;92.70;;;;;;4112882;34;20437;-35
2021/04/03 10:45:03;;;;;;;9.30;9.00;;;22.20;92.70;;;;;;4088996;34;20492;-35
2021/04/03 10:47:29;;;;;;;9.77;9.37;;;22.20;92.80;;;;;;4111131;34;20597;-35
2021/04/03 10:49:56;;;;;;;9.10;8.80;;;22.20;92.80;;;;;;4111437;34;20382;-35
2021/04/03 10:52:23;;;;;;;10.07;9.60;;;22.20;92.80;;;;;;4111528;34;20409;-35
2021/04/03 10:54:49;;;;;;;10.10;9.70;;;22.20;92.80;;;;;;4099617;34;20519;-35
2021/04/03 10:57:17;;;;;;;9.23;8.93;;;22.20;92.80;;;;;;4111523;34;20529;-35
2021/04/03 10:59:43;;;;;;;9.40;9.00;;;22.20;92.80;;;;;;4110887;34;20508;-35
2021/04/03 11:02:11;;;;;;;9.40;9.10;;;22.20;92.80;;;;;;4111932;34;20450;-35
2021/04/03 11:04:37;;;;;;;9.30;9.00;;;22.20;92.80;;;;;;4111335;34;20447;-36
2021/04/03 11:07:04;;;;;;;9.60;9.30;;;22.20;92.80;;;;;;4110962;34;20639;-36
2021/04/03 11:09:31;;;;;;;8.50;8.23;;;22.20;92.80;;;;;;4110773;34;20418;-36
2021/04/03 11:11:57;;;;;;;9.40;9.00;;;22.20;92.80;;;;;;4111069;34;20433;-35
2021/04/03 11:14:24;;;;;;;9.50;9.20;;;22.20;92.80;;;;;;4112210;34;20542;-35
2021/04/03 11:16:51;;;;;;;8.73;8.43;;;22.20;92.80;;;;;;4111401;34;20690;-35
2021/04/03 11:19:18;;;;;;;9.30;8.90;;;22.20;92.80;;;;;;4110658;34;20431;-35
2021/04/03 11:21:47;;;;;;;9.03;8.67;;;22.20;92.80;;;;;;4109538;34;20821;-36
2021/04/03 11:24:13;;;;;;;8.70;8.40;;;22.20;92.80;;;;;;4111509;34;20448;-35
2021/04/03 11:26:40;;;;;;;9.10;8.70;;;22.20;92.80;;;;;;4111043;34;20809;-35
2021/04/03 11:29:06;;;;;;;9.03;8.63;;;22.20;92.80;;;;;;4112015;34;20504;-35
2021/04/03 11:31:33;;;;;;;9.40;9.10;;;22.20;92.80;;;;;;4110148;34;20435;-35
2021/04/03 11:33:59;;;;;;;9.40;9.10;;;22.20;92.80;;;;;;4111405;34;20387;-35
2021/04/03 11:36:27;;;;;;;9.10;8.80;;;22.20;92.80;;;;;;4110220;34;20726;-35
2021/04/03 11:38:53;;;;;;;9.10;8.80;;;22.20;92.80;;;;;;4110436;34;20445;-35
2021/04/03 11:41:20;;;;;;;9.03;8.73;;;22.20;92.80;;;;;;4110678;34;20436;-35
2021/04/03 11:43:46;;;;;;;8.67;8.37;;;22.20;92.80;;;;;;4111164;34;20455;-35
2021/04/03 11:46:13;;;;;;;8.80;8.50;;;22.20;92.80;;;;;;4110091;34;20405;-35
2021/04/03 11:48:40;;;;;;;9.10;8.70;;;22.20;92.80;;;;;;4109366;34;20403;-36
2021/04/03 11:51:06;;;;;;;9.70;9.30;;;22.20;92.80;;;;;;4108683;34;20412;-35
2021/04/03 11:53:34;;;;;;;9.07;8.77;;;22.20;92.80;;;;;;4109530;34;21055;-35
2021/04/03 11:56:01;;;;;;;8.77;8.47;;;22.20;92.80;;;;;;4109684;34;20573;-36
2021/04/03 11:58:29;;;;;;;8.90;8.50;;;22.20;92.90;;;;;;4098406;34;20572;-36
2021/04/03 12:00:55;;;;;;;8.80;8.50;;;22.20;92.90;;;;;;4110630;34;20645;-35
2021/04/03 12:03:22;;;;;;;9.67;9.30;;;22.20;92.90;;;;;;4109570;34;20642;-35
2021/04/03 12:05:49;;;;;;;9.23;8.90;;;22.10;92.80;;;;;;4111571;34;20712;-35
2021/04/03 12:08:15;;;;;;;8.60;8.30;;;22.10;92.80;;;;;;4109414;34;20429;-35
2021/04/03 12:10:44;;;;;;;9.00;8.60;;;22.20;92.90;;;;;;4112211;34;20433;-35
2021/04/03 12:13:12;;;;;;;9.10;8.80;;;22.20;92.90;;;;;;4112163;34;20417;-35
2021/04/03 12:15:40;;;;;;;9.23;8.83;;;22.10;92.80;;;;;;4113894;34;20709;-35
2021/04/03 12:18:08;;;;;;;9.57;9.17;;;22.20;92.90;;;;;;4113306;34;20401;-35
2021/04/03 12:20:36;;;;;;;9.30;9.00;;;22.10;92.80;;;;;;4111670;34;20509;-34
2021/04/03 12:23:03;;;;;;;9.03;8.63;;;22.20;92.90;;;;;;4112733;34;21126;-35
2021/04/03 12:25:29;;;;;;;9.17;8.70;;;22.10;92.80;;;;;;4113805;34;20799;-34
2021/04/03 12:28:00;;;;;;;9.20;8.90;;;22.10;92.80;;;;;;4113284;34;20492;-35
2021/04/03 12:30:28;;;;;;;8.90;8.60;;;22.10;92.80;;;;;;4112870;34;20430;-35
2021/04/03 12:32:56;;;;;;;9.20;8.90;;;22.10;92.80;;;;;;4114089;34;20395;-35
2021/04/03 12:35:24;;;;;;;8.90;8.60;;;22.10;92.80;;;;;;4112761;34;20467;-35
2021/04/03 12:37:51;;;;;;;8.70;8.40;;;22.10;92.80;;;;;;4113305;34;20446;-34
2021/04/03 12:40:19;;;;;;;8.47;8.17;;;22.10;92.80;;;;;;4114481;34;20591;-35
2021/04/03 12:42:47;;;;;;;9.07;8.77;;;22.10;92.80;;;;;;4115015;34;20424;-35
2021/04/03 12:45:16;;;;;;;9.40;9.10;;;22.10;92.80;;;;;;4114509;34;20494;-35
2021/04/03 12:47:43;;;;;;;9.20;8.90;;;22.10;92.80;;;;;;4114456;34;20435;-36
2021/04/03 12:50:12;;;;;;;8.83;8.53;;;22.10;92.80;;;;;;4114019;34;21095;-35
2021/04/03 12:52:39;;;;;;;9.00;8.70;;;22.10;92.80;;;;;;4101302;34;20413;-34
2021/04/03 12:55:07;;;;;;;9.47;9.17;;;22.10;92.90;;;;;;4111992;34;20397;-36
2021/04/03 12:57:33;;;;;;;8.80;8.50;;;22.10;92.90;;;;;;4112322;34;20705;-35